createdAt,value
2022-11-03T00:00:12.785Z,18.75
2022-11-03T00:01:16.352Z,18.76
2022-11-03T00:02:18.735Z,18.88
2022-11-03T00:03:23.466Z,18.86
2022-11-03T00:04:25.695Z,18.88
2022-11-03T00:05:46.331Z,18.92
2022-11-03T00:06:50.995Z,18.86
2022-11-03T00:07:53.299Z,19.01
2022-11-03T00:08:59.503Z,18.90
2022-11-03T00:10:01.615Z,19.10
2022-11-03T00:11:10.208Z,19.08
2022-11-03T00:12:12.380Z,19.16
2022-11-03T00:13:15.601Z,18.98
2022-11-03T00:14:19.240Z,18.97
2022-11-03T00:15:21.385Z,19.12
2022-11-03T00:16:24.568Z,18.95
2022-11-03T00:17:26.743Z,19.12
2022-11-03T00:18:31.759Z,18.92
2022-11-03T00:19:33.920Z,19.10
2022-11-03T00:20:37.114Z,19.11
2022-11-03T00:21:39.339Z,19.18
2022-11-03T00:22:42.580Z,19.11
2022-11-03T00:23:46.552Z,19.08
2022-11-03T00:24:48.808Z,19.04
2022-11-03T00:25:52.134Z,19.11
2022-11-03T00:26:54.290Z,19.06
2022-11-03T00:27:58.398Z,19.05
2022-11-03T00:29:02.256Z,19.19
2022-11-03T00:30:06.047Z,19.03
2022-11-03T00:31:10.663Z,18.94
2022-11-03T00:32:13.835Z,19.08
2022-11-03T00:33:15.999Z,19.01
2022-11-03T00:34:20.614Z,19.02
2022-11-03T00:35:22.825Z,19.15
2022-11-03T00:36:28.851Z,19.32
2022-11-03T00:37:31.237Z,19.38
2022-11-03T00:38:34.868Z,19.45
2022-11-03T00:39:37.388Z,19.68
2022-11-03T00:40:40.723Z,19.26
2022-11-03T00:41:42.983Z,19.26
2022-11-03T00:42:46.371Z,19.12
2022-11-03T00:43:50.228Z,19.07
2022-11-03T00:44:53.595Z,19.00
2022-11-03T00:45:56.627Z,18.96
2022-11-03T00:46:59.995Z,18.94
2022-11-03T00:48:20.808Z,18.98
2022-11-03T00:49:25.566Z,19.05
2022-11-03T00:50:27.698Z,18.93
2022-11-03T00:51:31.331Z,19.05
2022-11-03T00:52:33.472Z,19.02
2022-11-03T00:53:38.502Z,19.19
2022-11-03T00:54:44.797Z,19.14
2022-11-03T00:55:51.396Z,19.21
2022-11-03T00:56:54.658Z,19.25
2022-11-03T00:57:56.844Z,19.21
2022-11-03T00:59:01.843Z,19.39
2022-11-03T01:00:04.787Z,19.45
2022-11-03T01:01:09.482Z,19.60
2022-11-03T01:02:11.882Z,19.54
2022-11-03T01:03:15.319Z,19.47
2022-11-03T01:04:37.149Z,19.41
2022-11-03T01:06:01.143Z,19.56
2022-11-03T01:07:06.217Z,19.44
2022-11-03T01:08:08.427Z,19.61
2022-11-03T01:09:11.619Z,19.39
2022-11-03T01:10:13.927Z,19.59
2022-11-03T01:11:36.699Z,19.73
2022-11-03T01:12:40.323Z,19.42
2022-11-03T01:13:42.484Z,19.55
2022-11-03T01:14:48.092Z,19.17
2022-11-03T01:15:50.265Z,19.22
2022-11-03T01:16:53.601Z,19.17
2022-11-03T01:17:55.825Z,19.34
2022-11-03T01:18:59.413Z,19.17
2022-11-03T01:20:02.740Z,19.43
2022-11-03T01:21:06.663Z,19.35
2022-11-03T01:22:10.993Z,19.32
2022-11-03T01:23:14.034Z,19.17
2022-11-03T01:24:17.559Z,19.30
2022-11-03T01:25:20.005Z,19.25
2022-11-03T01:26:23.378Z,19.13
2022-11-03T01:27:25.841Z,19.27
2022-11-03T01:28:29.143Z,19.28
2022-11-03T01:29:32.454Z,19.15
2022-11-03T01:30:35.084Z,19.08
2022-11-03T01:31:38.422Z,18.79
2022-11-03T01:32:41.065Z,18.78
2022-11-03T01:33:45.861Z,18.83
2022-11-03T01:34:49.049Z,18.66
2022-11-03T01:35:53.911Z,18.88
2022-11-03T01:36:58.692Z,18.69
2022-11-03T01:38:00.978Z,18.79
2022-11-03T01:39:04.293Z,18.57
2022-11-03T01:40:07.935Z,18.47
2022-11-03T01:41:14.718Z,18.48
2022-11-03T01:42:18.166Z,18.52
2022-11-03T01:43:22.586Z,18.49
2022-11-03T01:44:32.669Z,18.55
2022-11-03T01:45:34.918Z,18.75
2022-11-03T01:46:44.719Z,18.67
2022-11-03T01:47:47.964Z,18.41
2022-11-03T01:48:59.730Z,18.44
2022-11-03T01:50:06.286Z,18.59
2022-11-03T01:51:11.707Z,18.50
2022-11-03T01:52:20.746Z,18.44
2022-11-03T01:53:24.602Z,18.29
2022-11-03T01:54:29.951Z,18.63
2022-11-03T01:55:36.527Z,18.62
2022-11-03T01:56:43.959Z,18.55
2022-11-03T01:57:53.204Z,18.33
2022-11-03T01:58:56.364Z,18.49
2022-11-03T02:00:01.595Z,18.56
2022-11-03T02:01:04.218Z,18.69
2022-11-03T02:02:08.039Z,18.56
2022-11-03T02:03:11.390Z,18.35
2022-11-03T02:04:20.561Z,18.58
2022-11-03T02:05:26.940Z,18.69
2022-11-03T02:06:31.540Z,18.58
2022-11-03T02:07:41.624Z,18.72
2022-11-03T02:08:48.351Z,18.79
2022-11-03T02:09:52.202Z,18.81
2022-11-03T02:10:54.641Z,18.46
2022-11-03T02:12:10.765Z,18.49
2022-11-03T02:13:18.381Z,18.52
2022-11-03T02:14:21.559Z,18.50
2022-11-03T02:15:25.491Z,18.60
2022-11-03T02:16:30.895Z,18.38
2022-11-03T02:17:35.199Z,18.41
2022-11-03T02:18:37.870Z,18.57
2022-11-03T02:19:45.018Z,18.59
2022-11-03T02:20:54.502Z,18.76
2022-11-03T02:22:04.308Z,18.89
2022-11-03T02:23:24.486Z,18.75
2022-11-03T02:24:38.529Z,18.82
2022-11-03T02:25:47.677Z,18.94
2022-11-03T02:26:55.315Z,18.95
2022-11-03T02:27:58.198Z,18.95
2022-11-03T02:29:01.536Z,19.03
2022-11-03T02:30:04.674Z,19.14
2022-11-03T02:31:15.695Z,19.27
2022-11-03T02:32:22.083Z,19.21
2022-11-03T02:33:39.253Z,19.20
2022-11-03T02:34:48.499Z,19.06
2022-11-03T02:35:58.352Z,19.23
2022-11-03T02:37:08.410Z,19.31
2022-11-03T02:38:16.392Z,19.18
2022-11-03T02:39:22.927Z,19.07
2022-11-03T02:40:31.067Z,19.10
2022-11-03T02:41:38.516Z,19.10
2022-11-03T02:42:45.081Z,19.08
2022-11-03T02:43:50.430Z,18.67
2022-11-03T02:44:55.497Z,18.66
2022-11-03T02:45:59.079Z,18.68
2022-11-03T02:47:06.254Z,18.88
2022-11-03T02:48:10.367Z,18.67
2022-11-03T02:49:12.667Z,18.67
2022-11-03T02:50:16.544Z,18.91
2022-11-03T02:51:18.936Z,18.98
2022-11-03T02:52:40.582Z,18.82
2022-11-03T02:53:46.612Z,18.89
2022-11-03T02:54:50.286Z,19.04
2022-11-03T02:55:59.931Z,19.09
2022-11-03T02:57:09.626Z,19.17
2022-11-03T02:58:19.131Z,19.26
2022-11-03T02:59:27.586Z,19.37
2022-11-03T03:00:33.177Z,19.38
2022-11-03T03:01:47.486Z,19.18
2022-11-03T03:02:57.402Z,19.28
2022-11-03T03:04:05.107Z,19.39
2022-11-03T03:05:11.898Z,19.39
2022-11-03T03:06:21.092Z,19.29
2022-11-03T03:07:28.121Z,19.38
2022-11-03T03:08:32.619Z,19.35
2022-11-03T03:09:41.640Z,19.11
2022-11-03T03:10:48.552Z,19.33
2022-11-03T03:11:54.298Z,19.11
2022-11-03T03:13:00.701Z,18.84
2022-11-03T03:14:06.584Z,18.98
2022-11-03T03:15:11.365Z,18.91
2022-11-03T03:16:23.138Z,18.89
2022-11-03T03:17:31.798Z,19.24
2022-11-03T03:18:49.142Z,19.39
2022-11-03T03:19:57.264Z,19.41
2022-11-03T03:21:07.259Z,19.41
2022-11-03T03:22:16.638Z,19.38
2022-11-03T03:23:22.994Z,19.30
2022-11-03T03:24:33.654Z,19.22
2022-11-03T03:25:42.296Z,19.23
2022-11-03T03:26:49.685Z,19.20
2022-11-03T03:27:59.623Z,19.24
2022-11-03T03:29:08.047Z,19.18
2022-11-03T03:30:13.362Z,19.18
2022-11-03T03:31:19.455Z,19.15
2022-11-03T03:32:25.662Z,19.17
2022-11-03T03:33:30.414Z,19.17
2022-11-03T03:34:37.293Z,19.15
2022-11-03T03:35:42.477Z,19.14
2022-11-03T03:36:48.866Z,19.14
2022-11-03T03:37:54.984Z,19.14
2022-11-03T03:39:03.522Z,19.12
2022-11-03T03:40:11.166Z,19.09
2022-11-03T03:41:22.268Z,19.06
2022-11-03T03:42:28.773Z,19.01
2022-11-03T03:43:35.524Z,18.94
2022-11-03T03:44:41.968Z,18.89
2022-11-03T03:45:47.252Z,18.86
2022-11-03T03:46:52.725Z,18.96
2022-11-03T03:47:57.915Z,19.01
2022-11-03T03:49:05.706Z,19.02
2022-11-03T03:50:09.922Z,18.95
2022-11-03T03:51:14.380Z,19.06
2022-11-03T03:52:18.479Z,19.11
2022-11-03T03:53:20.722Z,19.17
2022-11-03T03:54:24.067Z,19.21
2022-11-03T03:55:34.545Z,19.28
2022-11-03T03:56:43.780Z,19.24
2022-11-03T03:57:45.918Z,19.29
2022-11-03T03:58:48.998Z,19.28
2022-11-03T03:59:52.582Z,19.31
2022-11-03T04:00:55.814Z,19.30
2022-11-03T04:01:58.478Z,19.34
2022-11-03T04:03:02.330Z,19.40
2022-11-03T04:04:05.141Z,19.41
2022-11-03T04:05:08.774Z,19.32
2022-11-03T04:06:10.946Z,19.23
2022-11-03T04:07:31.947Z,19.28
2022-11-03T04:08:35.225Z,19.36
2022-11-03T04:09:37.592Z,19.38
2022-11-03T04:10:40.874Z,19.33
2022-11-03T04:12:01.563Z,19.38
2022-11-03T04:13:23.489Z,19.34
2022-11-03T04:14:44.433Z,19.36
2022-11-03T04:16:06.345Z,19.33
2022-11-03T04:17:38.073Z,19.39
2022-11-03T04:18:58.735Z,19.46
2022-11-03T04:20:19.675Z,19.51
2022-11-03T04:21:51.919Z,19.49
2022-11-03T04:22:55.305Z,19.48
2022-11-03T04:23:57.855Z,19.48
2022-11-03T04:25:01.894Z,19.50
2022-11-03T04:26:10.778Z,19.63
2022-11-03T04:27:32.948Z,19.61
2022-11-03T04:28:35.201Z,19.67
2022-11-03T04:29:38.694Z,19.69
2022-11-03T04:30:41.159Z,19.57
2022-11-03T04:31:46.284Z,19.57
2022-11-03T04:32:50.143Z,19.45
2022-11-03T04:33:53.461Z,19.27
2022-11-03T04:34:55.810Z,19.23
2022-11-03T04:36:00.759Z,19.08
2022-11-03T04:37:02.974Z,19.32
2022-11-03T04:38:20.476Z,19.23
2022-11-03T04:39:23.858Z,19.00
2022-11-03T04:40:26.605Z,19.23
2022-11-03T04:41:33.129Z,19.10
2022-11-03T04:42:35.945Z,19.11
2022-11-03T04:43:40.066Z,19.18
2022-11-03T04:44:42.585Z,19.02
2022-11-03T04:45:47.356Z,19.17
2022-11-03T04:46:53.980Z,19.25
2022-11-03T04:47:59.497Z,19.27
2022-11-03T04:49:04.531Z,19.30
2022-11-03T04:50:15.142Z,19.11
2022-11-03T04:51:19.803Z,19.13
2022-11-03T04:52:24.163Z,19.17
2022-11-03T04:53:30.817Z,19.17
2022-11-03T04:54:34.275Z,19.16
2022-11-03T04:55:36.470Z,19.16
2022-11-03T04:56:41.535Z,19.18
2022-11-03T04:57:44.158Z,19.26
2022-11-03T04:58:48.409Z,19.35
2022-11-03T04:59:50.938Z,19.30
2022-11-03T05:00:57.500Z,19.39
2022-11-03T05:02:01.967Z,19.39
2022-11-03T05:03:05.946Z,19.47
2022-11-03T05:04:13.365Z,19.32
2022-11-03T05:05:19.776Z,19.11
2022-11-03T05:06:26.567Z,19.17
2022-11-03T05:07:35.949Z,19.14
2022-11-03T05:08:38.164Z,19.16
2022-11-03T05:09:42.979Z,19.05
2022-11-03T05:10:46.430Z,18.93
2022-11-03T05:11:50.098Z,18.81
2022-11-03T05:12:53.969Z,19.08
2022-11-03T05:14:02.790Z,19.09
2022-11-03T05:15:13.772Z,19.23
2022-11-03T05:16:18.284Z,19.25
2022-11-03T05:17:25.567Z,19.08
2022-11-03T05:18:32.694Z,19.04
2022-11-03T05:19:37.842Z,18.86
2022-11-03T05:20:47.895Z,18.94
2022-11-03T05:21:52.495Z,19.12
2022-11-03T05:22:54.737Z,19.20
2022-11-03T05:24:03.669Z,19.10
2022-11-03T05:25:35.886Z,18.85
2022-11-03T05:26:39.515Z,18.85
2022-11-03T05:27:41.751Z,18.95
2022-11-03T05:28:48.836Z,19.09
2022-11-03T05:29:56.400Z,19.16
2022-11-03T05:31:03.496Z,19.18
2022-11-03T05:32:12.392Z,19.11
2022-11-03T05:33:28.916Z,19.12
2022-11-03T05:34:37.564Z,19.11
2022-11-03T05:35:40.391Z,19.22
2022-11-03T05:36:43.942Z,19.11
2022-11-03T05:37:46.859Z,19.36
2022-11-03T05:38:51.072Z,19.42
2022-11-03T05:39:55.965Z,19.58
2022-11-03T05:41:00.086Z,19.62
2022-11-03T05:42:15.176Z,19.73
2022-11-03T05:43:19.599Z,19.88
2022-11-03T05:44:30.091Z,20.02
2022-11-03T05:45:35.740Z,20.02
2022-11-03T05:46:39.741Z,20.06
2022-11-03T05:47:42.408Z,20.01
2022-11-03T05:48:48.257Z,20.01
2022-11-03T05:49:52.963Z,19.63
2022-11-03T05:51:00.515Z,19.60
2022-11-03T05:52:02.674Z,19.19
2022-11-03T05:53:19.415Z,19.22
2022-11-03T05:54:25.129Z,19.06
2022-11-03T05:55:31.175Z,19.26
2022-11-03T05:56:36.543Z,19.10
2022-11-03T05:57:39.064Z,19.14
2022-11-03T05:58:44.468Z,19.02
2022-11-03T05:59:49.776Z,19.02
2022-11-03T06:00:53.251Z,19.05
2022-11-03T06:02:00.050Z,18.88
2022-11-03T06:03:03.838Z,18.85
2022-11-03T06:04:20.337Z,18.88
2022-11-03T06:05:24.258Z,18.93
2022-11-03T06:06:32.659Z,18.95
2022-11-03T06:07:35.219Z,19.03
2022-11-03T06:08:41.597Z,19.16
2022-11-03T06:09:47.187Z,18.74
2022-11-03T06:10:54.604Z,19.05
2022-11-03T06:12:00.199Z,19.17
2022-11-03T06:13:05.496Z,19.32
2022-11-03T06:14:18.648Z,19.58
2022-11-03T06:15:30.119Z,19.67
2022-11-03T06:16:42.455Z,19.80
2022-11-03T06:17:44.698Z,19.82
2022-11-03T06:18:48.143Z,19.79
2022-11-03T06:19:55.376Z,19.82
2022-11-03T06:20:59.791Z,19.77
2022-11-03T06:22:07.649Z,19.59
2022-11-03T06:23:16.150Z,19.45
2022-11-03T06:24:23.118Z,19.24
2022-11-03T06:25:30.174Z,18.98
2022-11-03T06:26:33.358Z,18.87
2022-11-03T06:27:35.675Z,18.86
2022-11-03T06:28:40.438Z,18.74
2022-11-03T06:29:47.934Z,18.76
2022-11-03T06:30:52.208Z,18.70
2022-11-03T06:31:58.287Z,18.61
2022-11-03T06:33:11.721Z,18.67
2022-11-03T06:34:30.063Z,18.75
2022-11-03T06:35:36.554Z,18.65
2022-11-03T06:36:38.745Z,18.67
2022-11-03T06:37:44.017Z,18.63
2022-11-03T06:38:50.736Z,18.59
2022-11-03T06:39:59.905Z,18.61
2022-11-03T06:41:03.056Z,18.61
2022-11-03T06:42:12.374Z,18.61
2022-11-03T06:43:20.857Z,18.62
2022-11-03T06:44:26.663Z,18.62
2022-11-03T06:45:29.717Z,18.61
2022-11-03T06:46:34.911Z,18.64
2022-11-03T06:47:41.477Z,18.69
2022-11-03T06:48:46.312Z,18.66
2022-11-03T06:49:49.371Z,18.66
2022-11-03T06:50:55.130Z,18.76
2022-11-03T06:52:00.504Z,18.81
2022-11-03T06:53:04.631Z,18.91
2022-11-03T06:54:12.871Z,18.91
2022-11-03T06:55:26.686Z,18.94
2022-11-03T06:56:32.776Z,18.92
2022-11-03T06:57:38.489Z,18.96
2022-11-03T06:58:42.844Z,18.96
2022-11-03T06:59:45.095Z,19.05
2022-11-03T07:00:51.316Z,19.05
2022-11-03T07:01:56.104Z,19.06
2022-11-03T07:03:07.984Z,19.11
2022-11-03T07:04:18.184Z,19.17
2022-11-03T07:05:23.206Z,19.26
2022-11-03T07:06:31.054Z,19.35
2022-11-03T07:07:33.184Z,19.46
2022-11-03T07:08:39.194Z,19.45
2022-11-03T07:09:41.375Z,19.54
2022-11-03T07:10:44.907Z,19.65
2022-11-03T07:11:50.093Z,19.62
2022-11-03T07:12:53.571Z,19.66
2022-11-03T07:13:59.569Z,19.66
2022-11-03T07:15:02.696Z,19.65
2022-11-03T07:16:06.207Z,19.58
2022-11-03T07:17:17.958Z,19.64
2022-11-03T07:18:24.124Z,19.71
2022-11-03T07:19:31.195Z,19.81
2022-11-03T07:20:33.405Z,19.90
2022-11-03T07:21:41.799Z,19.84
2022-11-03T07:22:46.094Z,19.81
2022-11-03T07:23:49.933Z,19.75
2022-11-03T07:24:56.624Z,19.70
2022-11-03T07:26:00.828Z,19.59
2022-11-03T07:27:14.434Z,19.72
2022-11-03T07:28:16.608Z,19.82
2022-11-03T07:29:23.079Z,19.90
2022-11-03T07:30:30.446Z,19.90
2022-11-03T07:31:33.702Z,19.82
2022-11-03T07:32:36.163Z,19.85
2022-11-03T07:33:39.799Z,19.82
2022-11-03T07:34:43.380Z,19.75
2022-11-03T07:36:13.701Z,19.77
2022-11-03T07:37:18.231Z,19.88
2022-11-03T07:38:22.318Z,19.86
2022-11-03T07:39:34.927Z,19.95
2022-11-03T07:40:37.864Z,20.00
2022-11-03T07:41:41.234Z,20.04
2022-11-03T07:42:43.540Z,19.99
2022-11-03T07:43:52.810Z,19.92
2022-11-03T07:44:56.643Z,19.77
2022-11-03T07:46:01.887Z,19.70
2022-11-03T07:47:11.949Z,19.71
2022-11-03T07:48:22.982Z,19.63
2022-11-03T07:49:28.948Z,19.60
2022-11-03T07:50:31.101Z,19.55
2022-11-03T07:51:36.205Z,19.50
2022-11-03T07:52:40.145Z,19.57
2022-11-03T07:53:45.632Z,19.63
2022-11-03T07:54:48.888Z,19.60
2022-11-03T07:55:55.574Z,19.47
2022-11-03T07:57:01.901Z,19.47
2022-11-03T07:58:21.888Z,19.45
2022-11-03T07:59:29.258Z,19.54
2022-11-03T08:00:32.342Z,19.53
2022-11-03T08:01:38.833Z,19.59
2022-11-03T08:02:49.966Z,19.73
2022-11-03T08:03:54.296Z,19.73
2022-11-03T08:04:58.705Z,19.72
2022-11-03T08:06:03.644Z,19.73
2022-11-03T08:07:09.316Z,19.75
2022-11-03T08:08:12.955Z,19.85
2022-11-03T08:09:16.338Z,19.79
2022-11-03T08:10:18.649Z,19.85
2022-11-03T08:11:26.088Z,19.88
2022-11-03T08:12:32.360Z,19.80
2022-11-03T08:13:34.964Z,19.90
2022-11-03T08:14:38.716Z,19.88
2022-11-03T08:15:41.096Z,19.95
2022-11-03T08:16:44.309Z,19.97
2022-11-03T08:17:47.347Z,19.88
2022-11-03T08:18:51.973Z,19.83
2022-11-03T08:19:54.139Z,19.82
2022-11-03T08:20:57.393Z,19.86
2022-11-03T08:21:59.500Z,19.93
2022-11-03T08:23:24.827Z,19.90
2022-11-03T08:24:27.536Z,19.87
2022-11-03T08:25:29.686Z,19.88
2022-11-03T08:26:33.054Z,19.88
2022-11-03T08:27:35.450Z,19.91
2022-11-03T08:28:38.727Z,19.94
2022-11-03T08:29:41.966Z,19.97
2022-11-03T08:30:44.173Z,19.97
2022-11-03T08:31:47.355Z,19.92
2022-11-03T08:32:49.816Z,19.94
2022-11-03T08:33:52.964Z,19.97
2022-11-03T08:34:55.085Z,19.99
2022-11-03T08:35:58.271Z,19.95
2022-11-03T08:37:01.711Z,20.04
2022-11-03T08:38:04.170Z,20.00
2022-11-03T08:39:07.706Z,19.98
2022-11-03T08:40:12.318Z,19.92
2022-11-03T08:41:15.582Z,19.98
2022-11-03T08:42:17.974Z,19.95
2022-11-03T08:43:21.234Z,19.94
2022-11-03T08:44:23.583Z,19.99
2022-11-03T08:45:26.807Z,19.99
2022-11-03T08:46:30.017Z,20.03
2022-11-03T08:47:32.214Z,20.06
2022-11-03T08:48:35.516Z,20.04
2022-11-03T08:49:37.647Z,20.00
2022-11-03T08:50:41.272Z,19.96
2022-11-03T08:51:44.803Z,20.00
2022-11-03T08:52:49.634Z,20.00
2022-11-03T08:53:54.108Z,20.10
2022-11-03T08:56:10.593Z,20.09
2022-11-03T08:57:16.062Z,20.11
2022-11-03T08:58:19.559Z,20.08
2022-11-03T08:59:22.815Z,20.05
2022-11-03T09:00:26.081Z,20.04
2022-11-03T09:01:29.417Z,20.04
2022-11-03T09:02:31.748Z,20.05
2022-11-03T09:03:35.076Z,19.98
2022-11-03T09:04:37.949Z,19.90
2022-11-03T09:05:41.904Z,20.01
2022-11-03T09:06:44.406Z,19.99
2022-11-03T09:10:35.713Z,20.24
2022-11-03T09:11:43.274Z,20.21
2022-11-03T09:12:45.495Z,20.25
2022-11-03T09:13:48.672Z,20.26
2022-11-03T09:14:50.959Z,20.27
2022-11-03T09:15:54.437Z,20.26
2022-11-03T09:16:56.579Z,20.17
2022-11-03T09:18:00.034Z,20.16
2022-11-03T09:19:02.227Z,20.06
2022-11-03T09:20:06.361Z,19.98
2022-11-03T09:21:09.178Z,19.90
2022-11-03T09:22:12.635Z,19.95
2022-11-03T09:23:15.803Z,19.99
2022-11-03T09:24:17.975Z,19.91
2022-11-03T09:25:21.224Z,19.84
2022-11-03T09:26:24.595Z,19.79
2022-11-03T09:27:29.490Z,19.80
2022-11-03T09:28:31.747Z,19.84
2022-11-03T09:29:58.315Z,19.84
2022-11-03T09:30:58.765Z,19.87
2022-11-03T09:32:00.944Z,19.84
2022-11-03T09:33:04.302Z,19.84
2022-11-03T09:34:06.681Z,19.85
2022-11-03T09:35:10.396Z,19.85
2022-11-03T09:36:12.642Z,19.84
2022-11-03T09:37:16.336Z,19.82
2022-11-03T09:38:18.564Z,19.83
2022-11-03T09:39:22.000Z,19.83
2022-11-03T09:40:26.130Z,19.87
2022-11-03T09:41:53.925Z,19.92
2022-11-03T09:42:54.533Z,19.90
2022-11-03T09:43:58.453Z,19.99
2022-11-03T09:45:03.271Z,20.03
2022-11-03T09:46:05.726Z,20.03
2022-11-03T09:47:13.309Z,20.00
2022-11-03T09:48:15.971Z,20.03
2022-11-03T09:49:21.605Z,19.95
2022-11-03T09:50:25.518Z,19.94
2022-11-03T09:51:29.069Z,20.02
2022-11-03T09:52:33.015Z,20.05
2022-11-03T09:53:35.647Z,20.04
2022-11-03T09:54:39.278Z,20.06
2022-11-03T09:55:41.547Z,20.10
2022-11-03T09:56:47.236Z,20.15
2022-11-03T09:57:50.772Z,20.16
2022-11-03T09:58:54.944Z,20.16
2022-11-03T09:59:58.216Z,20.21
2022-11-03T10:01:02.056Z,20.21
2022-11-03T10:02:12.166Z,20.21
2022-11-03T10:03:18.145Z,20.24
2022-11-03T10:04:27.063Z,20.24
2022-11-03T10:05:30.704Z,20.23
2022-11-03T10:06:32.842Z,20.29
2022-11-03T10:07:36.834Z,20.33
2022-11-03T10:08:42.153Z,20.22
2022-11-03T10:09:47.933Z,20.21
2022-11-03T10:10:50.496Z,20.09
2022-11-03T10:11:55.623Z,20.06
2022-11-03T10:13:00.885Z,20.02
2022-11-03T10:14:07.279Z,20.02
2022-11-03T10:15:16.466Z,19.97
2022-11-03T10:16:23.020Z,20.02
2022-11-03T10:17:30.081Z,20.00
2022-11-03T10:18:33.753Z,20.04
2022-11-03T10:19:36.970Z,20.02
2022-11-03T10:20:39.414Z,20.07
2022-11-03T10:21:44.870Z,20.07
2022-11-03T10:22:51.951Z,19.99
2022-11-03T10:23:54.274Z,20.04
2022-11-03T10:25:32.011Z,19.99
2022-11-03T10:26:45.046Z,20.13
2022-11-03T10:27:48.356Z,20.20
2022-11-03T10:29:03.761Z,20.25
2022-11-03T10:30:11.866Z,20.22
2022-11-03T10:31:22.379Z,19.99
2022-11-03T10:32:34.304Z,20.05
2022-11-03T10:33:38.985Z,20.11
2022-11-03T10:34:42.223Z,20.17
2022-11-03T10:35:44.390Z,20.21
2022-11-03T10:36:50.589Z,20.29
2022-11-03T10:37:54.117Z,20.15
2022-11-03T10:38:56.717Z,20.11
2022-11-03T10:40:00.568Z,20.20
2022-11-03T10:41:14.386Z,20.26
2022-11-03T10:42:24.748Z,20.23
2022-11-03T10:43:27.122Z,20.27
2022-11-03T10:44:31.332Z,20.37
2022-11-03T10:45:35.112Z,20.34
2022-11-03T10:46:50.808Z,20.39
2022-11-03T10:48:01.967Z,20.46
2022-11-03T10:50:23.149Z,20.61
2022-11-03T10:51:25.462Z,20.73
2022-11-03T10:52:30.964Z,20.68
2022-11-03T10:53:34.568Z,20.71
2022-11-03T10:54:38.407Z,20.67
2022-11-03T10:55:42.710Z,20.53
2022-11-03T10:56:46.534Z,20.50
2022-11-03T10:57:53.165Z,20.47
2022-11-03T11:00:05.991Z,20.51
2022-11-03T11:01:12.512Z,20.48
2022-11-03T11:02:18.746Z,20.50
2022-11-03T11:03:22.386Z,20.57
2022-11-03T11:04:26.371Z,20.61
2022-11-03T11:05:29.829Z,20.61
2022-11-03T11:06:32.344Z,20.56
2022-11-03T11:07:39.806Z,20.46
2022-11-03T11:08:42.227Z,20.36
2022-11-03T11:09:45.729Z,20.32
2022-11-03T11:10:49.372Z,20.37
2022-11-03T11:12:04.234Z,20.41
2022-11-03T11:13:25.793Z,20.37
2022-11-03T11:14:39.638Z,20.39
2022-11-03T11:15:44.496Z,20.37
2022-11-03T11:16:53.924Z,20.37
2022-11-03T11:17:57.306Z,20.43
2022-11-03T11:19:03.104Z,20.45
2022-11-03T11:20:33.666Z,20.50
2022-11-03T11:22:01.331Z,20.65
2022-11-03T11:23:52.545Z,20.63
2022-11-03T11:24:59.932Z,20.56
2022-11-03T11:26:30.937Z,20.52
2022-11-03T11:28:18.184Z,20.56
2022-11-03T11:29:45.302Z,20.61
2022-11-03T11:30:57.106Z,20.63
2022-11-03T11:32:01.828Z,20.60
2022-11-03T11:33:15.656Z,20.69
2022-11-03T11:34:48.846Z,20.55
2022-11-03T11:36:20.610Z,20.58
2022-11-03T11:37:41.360Z,20.69
2022-11-03T11:39:12.798Z,20.71
2022-11-03T11:40:36.308Z,20.74
2022-11-03T11:42:17.185Z,21.00
2022-11-03T11:43:26.893Z,20.98
2022-11-03T11:44:53.423Z,20.86
2022-11-03T11:46:40.074Z,20.86
2022-11-03T11:47:50.642Z,20.99
2022-11-03T11:49:16.037Z,21.02
2022-11-03T11:50:33.513Z,21.15
2022-11-03T11:51:36.618Z,21.08
2022-11-03T11:52:45.036Z,20.99
2022-11-03T11:53:58.774Z,20.92
2022-11-03T11:55:20.502Z,20.88
2022-11-03T11:56:24.058Z,20.77
2022-11-03T11:57:34.813Z,20.93
2022-11-03T11:58:43.081Z,20.92
2022-11-03T11:59:46.756Z,21.02
2022-11-03T12:00:59.153Z,20.94
2022-11-03T12:02:02.619Z,20.94
2022-11-03T12:03:07.373Z,20.88
2022-11-03T12:04:20.424Z,20.84
2022-11-03T12:05:26.294Z,20.83
2022-11-03T12:06:37.079Z,20.83
2022-11-03T12:07:39.560Z,20.84
2022-11-03T12:08:43.827Z,20.82
2022-11-03T12:09:46.028Z,20.83
2022-11-03T12:10:56.164Z,20.80
2022-11-03T12:12:07.088Z,20.69
2022-11-03T12:13:36.597Z,20.67
2022-11-03T12:14:40.965Z,20.67
2022-11-03T12:15:55.956Z,20.74
2022-11-03T12:17:00.287Z,20.75
2022-11-03T12:18:35.195Z,20.72
2022-11-03T12:19:44.620Z,20.68
2022-11-03T12:20:47.495Z,20.69
2022-11-03T12:21:52.110Z,20.70
2022-11-03T12:22:55.420Z,20.73
2022-11-03T12:23:57.733Z,20.70
2022-11-03T12:26:43.934Z,20.60
2022-11-03T12:27:47.221Z,20.53
2022-11-03T12:28:49.471Z,20.52
2022-11-03T12:29:53.534Z,20.52
2022-11-03T12:30:55.717Z,20.52
2022-11-03T12:31:58.944Z,20.54
2022-11-03T12:33:01.540Z,20.47
2022-11-03T12:34:06.086Z,20.47
2022-11-03T12:35:09.747Z,20.53
2022-11-03T12:36:13.011Z,20.54
2022-11-03T12:37:15.507Z,20.54
2022-11-03T12:38:18.808Z,20.50
2022-11-03T12:39:22.344Z,20.56
2022-11-03T12:40:27.395Z,20.55
2022-11-03T12:41:30.759Z,20.55
2022-11-03T12:42:32.891Z,20.57
2022-11-03T12:43:36.150Z,20.59
2022-11-03T12:44:43.568Z,20.57
2022-11-03T12:45:47.023Z,20.50
2022-11-03T12:46:50.286Z,20.54
2022-11-03T12:47:53.646Z,20.54
2022-11-03T12:48:57.220Z,20.56
2022-11-03T12:50:00.882Z,20.56
2022-11-03T12:51:04.180Z,20.53
2022-11-03T12:52:08.612Z,20.47
2022-11-03T12:53:12.593Z,20.49
2022-11-03T12:54:15.964Z,20.50
2022-11-03T12:55:18.211Z,20.53
2022-11-03T12:56:22.277Z,20.52
2022-11-03T12:57:25.119Z,20.58
2022-11-03T12:58:28.423Z,20.60
2022-11-03T12:59:30.910Z,20.66
2022-11-03T13:00:34.335Z,20.64
2022-11-03T13:01:36.625Z,20.58
2022-11-03T13:02:39.986Z,20.52
2022-11-03T13:03:43.554Z,20.53
2022-11-03T13:04:46.858Z,20.58
2022-11-03T13:05:51.969Z,20.57
2022-11-03T13:06:54.551Z,20.57
2022-11-03T13:07:57.743Z,20.60
2022-11-03T13:09:01.034Z,20.61
2022-11-03T13:10:04.999Z,20.59
2022-11-03T13:11:28.213Z,20.59
2022-11-03T13:12:36.799Z,20.60
2022-11-03T13:13:40.447Z,20.57
2022-11-03T13:14:45.980Z,20.58
2022-11-03T13:15:53.198Z,20.56
2022-11-03T13:16:55.433Z,20.53
2022-11-03T13:18:12.984Z,20.53
2022-11-03T13:19:15.822Z,20.54
2022-11-03T13:20:19.107Z,20.54
2022-11-03T13:21:22.813Z,20.57
2022-11-03T13:22:26.148Z,20.60
2022-11-03T13:23:28.362Z,20.62
2022-11-03T13:24:31.749Z,20.59
2022-11-03T13:25:35.170Z,20.63
2022-11-03T13:26:37.442Z,20.65
2022-11-03T13:27:40.771Z,20.67
2022-11-03T13:28:42.996Z,20.66
2022-11-03T13:29:46.413Z,20.69
2022-11-03T13:30:50.202Z,20.70
2022-11-03T13:31:52.389Z,20.68
2022-11-03T13:32:55.608Z,20.74
2022-11-03T13:33:57.949Z,20.82
2022-11-03T13:35:01.292Z,20.83
2022-11-03T13:36:03.489Z,20.89
2022-11-03T13:37:08.275Z,20.87
2022-11-03T13:38:11.570Z,20.87
2022-11-03T13:39:13.843Z,20.83
2022-11-03T13:41:41.095Z,20.78
2022-11-03T13:42:44.512Z,20.76
2022-11-03T13:43:47.833Z,20.77
2022-11-03T13:44:51.156Z,20.77
2022-11-03T13:45:53.362Z,20.82
2022-11-03T13:46:56.466Z,20.85
2022-11-03T13:49:59.115Z,20.86
2022-11-03T13:50:46.389Z,20.87
2022-11-03T13:51:49.743Z,20.89
2022-11-03T13:52:53.565Z,20.90
2022-11-03T13:59:30.210Z,21.16
2022-11-03T14:00:32.800Z,21.19
2022-11-03T14:01:36.818Z,21.24
2022-11-03T14:05:27.012Z,21.33
2022-11-03T14:06:29.165Z,21.36
2022-11-03T14:07:32.307Z,21.38
2022-11-03T14:08:36.094Z,21.40
2022-11-03T14:09:39.405Z,21.38
2022-11-03T14:10:41.575Z,21.39
2022-11-03T14:12:02.838Z,21.41
2022-11-03T14:13:06.461Z,21.36
2022-11-03T14:14:09.030Z,21.31
2022-11-03T14:15:13.516Z,21.33
2022-11-03T14:16:16.018Z,21.34
2022-11-03T14:17:19.291Z,21.37
2022-11-03T14:18:22.480Z,21.29
2022-11-03T14:19:33.326Z,21.32
2022-11-03T14:20:39.909Z,21.31
2022-11-03T14:21:43.091Z,21.25
2022-11-03T14:22:46.313Z,21.25
2022-11-03T14:23:50.063Z,21.25
2022-11-03T14:24:54.015Z,21.25
2022-11-03T14:26:07.020Z,21.23
2022-11-03T14:27:20.104Z,21.26
2022-11-03T14:28:26.113Z,21.25
2022-11-03T14:29:30.135Z,21.24
2022-11-03T14:30:33.363Z,21.22
2022-11-03T14:31:35.837Z,21.23
2022-11-03T14:32:39.424Z,21.21
2022-11-03T14:33:41.736Z,21.20
2022-11-03T14:34:45.161Z,21.22